createdAt,value
2019-05-25T00:02:49.282Z,14.50
2019-05-25T00:05:50.695Z,14.50
2019-05-25T00:08:51.968Z,14.50
2019-05-25T00:11:53.218Z,14.50
2019-05-25T00:14:54.464Z,14.40
2019-05-25T00:17:55.818Z,14.40
2019-05-25T00:20:57.069Z,14.40
2019-05-25T00:24:11.259Z,14.40
2019-05-25T00:27:01.624Z,14.30
2019-05-25T00:30:04.940Z,14.30
2019-05-25T00:33:06.496Z,14.30
2019-05-25T00:36:07.744Z,14.30
2019-05-25T00:39:09.189Z,14.30
2019-05-25T00:42:10.448Z,14.30
2019-05-25T00:45:13.777Z,14.30
2019-05-25T00:48:15.522Z,14.30
2019-05-25T00:51:16.800Z,14.30
2019-05-25T00:54:27.393Z,14.20
2019-05-25T00:57:21.212Z,14.20
2019-05-25T01:00:22.438Z,14.20
2019-05-25T01:03:23.940Z,14.20
2019-05-25T01:06:25.266Z,14.20
2019-05-25T01:09:26.772Z,14.20
2019-05-25T01:12:28.012Z,14.20
2019-05-25T01:15:29.260Z,14.10
2019-05-25T01:18:31.098Z,14.20
2019-05-25T01:21:32.342Z,14.20
2019-05-25T01:24:43.931Z,14.20
2019-05-25T01:27:36.809Z,14.10
2019-05-25T01:30:38.357Z,14.10
2019-05-25T01:33:39.584Z,14.10
2019-05-25T01:36:41.515Z,14.20
2019-05-25T01:39:42.730Z,14.20
2019-05-25T01:42:44.204Z,14.20
2019-05-25T01:45:46.695Z,14.10
2019-05-25T01:48:48.129Z,14.10
2019-05-25T01:51:49.365Z,14.10
2019-05-25T01:54:59.493Z,14.20
2019-05-25T01:57:53.774Z,14.20
2019-05-25T02:00:55.320Z,14.20
2019-05-25T02:03:56.557Z,14.20
2019-05-25T02:06:57.946Z,14.10
2019-05-25T02:09:59.180Z,14.20
2019-05-25T02:13:00.571Z,14.10
2019-05-25T02:16:01.794Z,14.10
2019-05-25T02:19:03.263Z,14.10
2019-05-25T02:22:04.494Z,14.10
2019-05-25T02:25:16.914Z,14.10
2019-05-25T02:28:08.794Z,14.10
2019-05-25T02:31:10.284Z,14.10
2019-05-25T02:34:11.517Z,14.10
2019-05-25T02:37:12.881Z,14.00
2019-05-25T02:40:14.165Z,14.00
2019-05-25T02:43:15.734Z,14.00
2019-05-25T02:46:17.001Z,14.00
2019-05-25T02:49:18.451Z,14.00
2019-05-25T02:52:19.685Z,14.00
2019-05-25T02:55:33.756Z,14.00
2019-05-25T02:58:24.153Z,14.00
2019-05-25T03:01:25.595Z,14.00
2019-05-25T03:04:26.829Z,14.00
2019-05-25T03:07:28.269Z,14.00
2019-05-25T03:10:29.750Z,14.00
2019-05-25T03:13:31.428Z,14.00
2019-05-25T03:16:33.115Z,14.00
2019-05-25T03:19:34.584Z,13.90
2019-05-25T03:22:35.810Z,14.00
2019-05-25T03:25:49.148Z,14.00
2019-05-25T03:28:40.613Z,13.90
2019-05-25T03:31:41.861Z,13.90
2019-05-25T03:34:43.117Z,13.90
2019-05-25T03:37:44.369Z,13.90
2019-05-25T03:40:45.781Z,13.90
2019-05-25T03:43:47.023Z,14.00
2019-05-25T03:46:49.118Z,14.00
2019-05-25T03:49:50.496Z,14.00
2019-05-25T03:52:51.745Z,14.10
2019-05-25T03:56:05.324Z,14.20
2019-05-25T03:58:56.557Z,14.20
2019-05-25T04:01:57.915Z,14.30
2019-05-25T04:04:59.264Z,14.40
2019-05-25T04:08:01.079Z,14.40
2019-05-25T04:11:02.325Z,14.40
2019-05-25T04:14:03.770Z,14.50
2019-05-25T04:17:05.015Z,14.50
2019-05-25T04:20:06.267Z,14.60
2019-05-25T04:23:07.946Z,14.60
2019-05-25T04:26:22.219Z,14.60
2019-05-25T04:29:12.354Z,14.60
2019-05-25T04:32:13.625Z,14.70
2019-05-25T04:35:15.088Z,14.70
2019-05-25T04:38:17.026Z,14.80
2019-05-25T04:41:19.096Z,14.90
2019-05-25T04:44:20.300Z,15.00
2019-05-25T04:47:26.890Z,15.10
2019-05-25T04:50:25.895Z,15.30
2019-05-25T04:53:27.325Z,15.50
2019-05-25T04:56:38.701Z,15.50
2019-05-25T04:59:33.956Z,15.70
2019-05-25T05:02:36.013Z,15.80
2019-05-25T05:05:38.797Z,15.80
2019-05-25T05:08:40.351Z,15.90
2019-05-25T05:11:42.560Z,16.00
2019-05-25T05:14:44.788Z,16.20
2019-05-25T05:17:48.276Z,16.20
2019-05-25T05:20:50.120Z,16.30
2019-05-25T05:23:51.891Z,16.40
2019-05-25T05:26:56.185Z,16.60
2019-05-25T05:29:58.297Z,16.70
2019-05-25T05:33:00.342Z,16.80
2019-05-25T05:36:03.431Z,16.80
2019-05-25T05:39:09.377Z,16.70
2019-05-25T05:42:12.959Z,16.80
2019-05-25T05:45:15.643Z,16.90
2019-05-25T05:48:17.590Z,16.70
2019-05-25T05:51:20.187Z,16.90
2019-05-25T05:54:21.952Z,16.80
2019-05-25T05:57:23.780Z,16.90
2019-05-25T06:00:26.309Z,16.80
2019-05-25T06:03:29.644Z,16.90
2019-05-25T06:06:32.597Z,17.00
2019-05-25T06:09:34.042Z,17.00
2019-05-25T06:12:36.291Z,17.00
2019-05-25T06:15:37.759Z,17.10
2019-05-25T06:18:39.022Z,17.10
2019-05-25T06:21:40.632Z,17.20
2019-05-25T06:24:42.976Z,17.10
2019-05-25T06:27:44.251Z,17.10
2019-05-25T06:30:46.192Z,17.10
2019-05-25T06:33:47.789Z,17.10
2019-05-25T06:36:49.366Z,17.10
2019-05-25T06:39:51.625Z,17.30
2019-05-25T06:42:55.421Z,17.60
2019-05-25T06:46:01.129Z,17.90
2019-05-25T06:49:02.723Z,18.10
2019-05-25T06:52:05.234Z,18.60
2019-05-25T06:55:11.433Z,18.90
2019-05-25T06:58:15.592Z,19.30
2019-05-25T07:01:18.145Z,19.40
2019-05-25T07:04:19.992Z,19.70
2019-05-25T07:07:22.982Z,19.90
2019-05-25T07:10:24.270Z,19.90
2019-05-25T07:13:28.627Z,20.00
2019-05-25T07:16:32.080Z,20.20
2019-05-25T07:19:35.805Z,20.20
2019-05-25T07:22:38.024Z,20.00
2019-05-25T07:25:39.366Z,20.10
2019-05-25T07:28:40.905Z,20.20
2019-05-25T07:31:45.758Z,20.40
2019-05-25T07:34:48.448Z,20.20
2019-05-25T07:37:50.461Z,20.20
2019-05-25T07:40:52.031Z,20.20
2019-05-25T07:43:55.798Z,20.10
2019-05-25T07:46:57.518Z,20.20
2019-05-25T07:49:59.835Z,20.30
2019-05-25T07:53:01.822Z,20.40
2019-05-25T07:56:03.460Z,20.20
2019-05-25T07:59:05.014Z,20.10
2019-05-25T08:02:06.426Z,20.10
2019-05-25T08:05:07.668Z,20.10
2019-05-25T08:08:09.837Z,20.30
2019-05-25T08:11:11.369Z,20.40
2019-05-25T08:14:12.652Z,20.30
2019-05-25T08:17:14.406Z,20.50
2019-05-25T08:20:16.512Z,20.30
2019-05-25T08:23:19.812Z,20.10
2019-05-25T08:26:23.582Z,20.20
2019-05-25T08:29:25.967Z,20.20
2019-05-25T08:32:28.736Z,20.20
2019-05-25T08:35:30.518Z,20.10
2019-05-25T08:38:32.187Z,20.10
2019-05-25T08:41:34.667Z,20.20
2019-05-25T08:44:37.281Z,20.30
2019-05-25T08:47:38.917Z,20.40
2019-05-25T08:50:41.559Z,20.70
2019-05-25T08:53:46.698Z,20.80
2019-05-25T08:56:48.410Z,20.80
2019-05-25T08:59:49.670Z,21.00
2019-05-25T09:02:52.137Z,21.00
2019-05-25T09:05:53.759Z,20.90
2019-05-25T09:08:55.947Z,20.80
2019-05-25T09:11:58.033Z,20.80
2019-05-25T09:14:59.917Z,21.20
2019-05-25T09:18:02.033Z,21.40
2019-05-25T09:21:03.264Z,21.30
2019-05-25T09:24:04.803Z,20.70
2019-05-25T09:27:06.323Z,20.90
2019-05-25T09:30:11.542Z,21.30
2019-05-25T09:33:12.890Z,21.40
2019-05-25T09:36:14.503Z,21.40
2019-05-25T09:39:16.229Z,21.10
2019-05-25T09:42:18.169Z,21.30
2019-05-25T09:45:20.775Z,21.70
2019-05-25T09:48:21.999Z,21.60
2019-05-25T09:51:23.524Z,21.60
2019-05-25T09:54:25.389Z,22.00
2019-05-25T09:57:26.919Z,22.80
2019-05-25T10:00:28.729Z,22.80
2019-05-25T10:03:30.106Z,22.80
2019-05-25T10:06:31.538Z,22.80
2019-05-25T10:09:32.802Z,22.80
2019-05-25T10:12:34.922Z,22.90
2019-05-25T10:15:36.167Z,22.60
2019-05-25T10:18:37.437Z,22.50
2019-05-25T10:21:38.777Z,22.30
2019-05-25T10:24:40.030Z,22.40
2019-05-25T10:27:41.276Z,22.40
2019-05-25T10:30:42.569Z,22.60
2019-05-25T10:33:44.007Z,22.90
2019-05-25T10:36:45.267Z,22.90
2019-05-25T10:39:46.530Z,23.20
2019-05-25T10:42:48.150Z,23.40
2019-05-25T10:45:49.908Z,23.70
2019-05-25T10:48:51.618Z,23.40
2019-05-25T10:51:53.247Z,23.10
2019-05-25T10:54:54.482Z,23.10
2019-05-25T10:57:55.745Z,23.30
2019-05-25T11:00:56.978Z,23.40
2019-05-25T11:03:58.246Z,23.00
2019-05-25T11:06:59.771Z,22.80
2019-05-25T11:10:01.275Z,23.00
2019-05-25T11:13:02.769Z,23.60
2019-05-25T11:16:06.530Z,24.20
2019-05-25T11:19:07.773Z,23.40
2019-05-25T11:22:09.251Z,23.70
2019-05-25T11:25:10.501Z,23.80
2019-05-25T11:28:11.794Z,23.90
2019-05-25T11:31:13.245Z,24.00
2019-05-25T11:34:15.072Z,25.00
2019-05-25T11:37:16.310Z,25.90
2019-05-25T11:40:17.588Z,26.60
2019-05-25T11:43:19.777Z,27.20
2019-05-25T11:46:21.342Z,27.10
2019-05-25T11:49:23.622Z,27.40
2019-05-25T11:52:27.927Z,27.50
2019-05-25T11:55:29.243Z,28.00
2019-05-25T11:58:30.615Z,28.00
2019-05-25T12:01:31.855Z,27.30
2019-05-25T12:04:33.752Z,28.10
2019-05-25T12:07:35.015Z,28.20
2019-05-25T12:10:36.937Z,28.40
2019-05-25T12:13:38.182Z,28.10
2019-05-25T12:16:41.127Z,28.50
2019-05-25T12:19:42.775Z,28.80
2019-05-25T12:22:44.256Z,29.10
2019-05-25T12:25:45.471Z,28.60
2019-05-25T12:28:47.351Z,28.80
2019-05-25T12:31:48.803Z,29.00
2019-05-25T12:34:50.363Z,29.20
2019-05-25T12:37:51.615Z,28.50
2019-05-25T12:40:54.228Z,28.70
2019-05-25T12:43:55.707Z,28.90
2019-05-25T12:46:57.397Z,29.10
2019-05-25T12:49:59.753Z,29.30
2019-05-25T12:53:02.346Z,29.80
2019-05-25T12:56:03.577Z,30.10
2019-05-25T12:59:04.911Z,30.60
2019-05-25T13:02:06.366Z,30.70
2019-05-25T13:05:07.732Z,29.90
2019-05-25T13:08:08.955Z,30.30
2019-05-25T13:11:10.837Z,29.60
2019-05-25T13:14:14.943Z,28.80
2019-05-25T13:17:16.126Z,29.30
2019-05-25T13:20:17.425Z,29.30
2019-05-25T13:23:19.961Z,29.50
2019-05-25T13:26:22.971Z,29.60
2019-05-25T13:29:25.005Z,29.60
2019-05-25T13:32:26.255Z,29.40
2019-05-25T13:35:28.496Z,29.70
2019-05-25T13:38:30.193Z,30.10
2019-05-25T13:41:31.649Z,30.90
2019-05-25T13:44:33.394Z,29.90
2019-05-25T13:47:35.492Z,29.20
2019-05-25T13:50:37.090Z,28.80
2019-05-25T13:53:38.966Z,29.00
2019-05-25T13:56:40.346Z,28.90
2019-05-25T13:59:41.998Z,28.90
2019-05-25T14:02:43.752Z,29.20
2019-05-25T14:05:45.210Z,28.70
2019-05-25T14:08:46.903Z,29.00
2019-05-25T14:11:48.187Z,28.90
2019-05-25T14:14:49.410Z,29.10
2019-05-25T14:17:51.873Z,29.30
2019-05-25T14:20:53.460Z,29.00
2019-05-25T14:23:55.123Z,29.00
2019-05-25T14:26:56.384Z,28.90
2019-05-25T14:29:58.017Z,29.20
2019-05-25T14:32:59.661Z,29.20
2019-05-25T14:36:01.246Z,29.60
2019-05-25T14:39:06.407Z,29.10
2019-05-25T14:42:07.722Z,29.30
2019-05-25T14:45:10.183Z,29.00
2019-05-25T14:48:11.414Z,29.70
2019-05-25T14:51:13.249Z,29.60
2019-05-25T14:54:15.337Z,30.60
2019-05-25T14:57:17.069Z,31.70
2019-05-25T15:00:18.684Z,31.80
2019-05-25T15:03:20.160Z,31.80
2019-05-25T15:06:21.977Z,32.10
2019-05-25T15:09:23.408Z,31.90
2019-05-25T15:12:25.037Z,31.90
2019-05-25T15:15:27.706Z,31.90
2019-05-25T15:18:31.338Z,32.10
2019-05-25T15:21:32.957Z,32.50
2019-05-25T15:24:35.203Z,32.80
2019-05-25T15:27:37.069Z,33.70
2019-05-25T15:30:38.607Z,33.60
2019-05-25T15:33:42.950Z,32.60
2019-05-25T15:36:45.968Z,32.90
2019-05-25T15:39:47.786Z,33.10
2019-05-25T15:42:49.046Z,33.30
2019-05-25T15:45:50.989Z,33.50
2019-05-25T15:48:52.387Z,33.10
2019-05-25T15:51:54.812Z,34.00
2019-05-25T15:54:57.109Z,34.20
2019-05-25T15:57:59.511Z,33.40
2019-05-25T16:01:03.785Z,33.20
2019-05-25T16:04:07.088Z,33.10
2019-05-25T16:07:08.399Z,32.90
2019-05-25T16:10:10.095Z,32.30
2019-05-25T16:13:12.165Z,30.80
2019-05-25T16:16:13.732Z,29.70
2019-05-25T16:19:17.853Z,28.20
2019-05-25T16:22:19.566Z,27.30
2019-05-25T16:25:21.705Z,26.60
2019-05-25T16:28:24.067Z,27.50
2019-05-25T16:31:25.369Z,27.90
2019-05-25T16:34:27.489Z,27.50
2019-05-25T16:37:30.023Z,26.70
2019-05-25T16:40:31.319Z,25.90
2019-05-25T16:43:32.554Z,25.00
2019-05-25T16:46:34.554Z,24.40
2019-05-25T16:49:36.418Z,23.80
2019-05-25T16:52:37.793Z,23.20
2019-05-25T16:55:39.258Z,22.80
2019-05-25T16:58:41.208Z,22.50
2019-05-25T17:01:48.341Z,22.10
2019-05-25T17:04:46.188Z,21.80
2019-05-25T17:07:47.635Z,21.60
2019-05-25T17:10:50.316Z,21.30
2019-05-25T17:13:51.933Z,21.10
2019-05-25T17:16:53.187Z,21.00
2019-05-25T17:19:56.897Z,20.90
2019-05-25T17:22:58.247Z,20.80
2019-05-25T17:26:00.173Z,20.70
2019-05-25T17:29:02.800Z,20.70
2019-05-25T17:32:04.549Z,20.60
2019-05-25T17:35:06.426Z,20.60
2019-05-25T17:38:07.883Z,20.60
2019-05-25T17:41:10.090Z,20.60
2019-05-25T17:44:12.111Z,20.50
2019-05-25T17:47:13.631Z,20.40
2019-05-25T17:50:15.671Z,20.40
2019-05-25T17:53:17.612Z,20.50
2019-05-25T17:56:19.001Z,20.50
2019-05-25T17:59:20.279Z,20.50
2019-05-25T18:02:21.695Z,20.50
2019-05-25T18:05:22.930Z,20.40
2019-05-25T18:08:24.315Z,20.30
2019-05-25T18:11:25.587Z,20.00
2019-05-25T18:14:27.439Z,19.80
2019-05-25T18:17:28.695Z,19.50
2019-05-25T18:20:31.082Z,19.20
2019-05-25T18:23:32.380Z,18.90
2019-05-25T18:26:34.090Z,18.50
2019-05-25T18:29:35.484Z,18.20
2019-05-25T18:32:36.737Z,17.90
2019-05-25T18:35:38.866Z,17.70
2019-05-25T18:38:40.169Z,17.50
2019-05-25T18:41:41.668Z,17.30
2019-05-25T18:44:45.822Z,17.10
2019-05-25T18:47:47.828Z,16.90
2019-05-25T18:50:49.493Z,16.70
2019-05-25T18:53:51.390Z,16.50
2019-05-25T18:56:52.799Z,16.40
2019-05-25T18:59:54.068Z,16.20
2019-05-25T19:02:55.653Z,16.10
2019-05-25T19:05:57.321Z,16.00
2019-05-25T19:08:59.407Z,15.90
2019-05-25T19:12:01.608Z,15.80
2019-05-25T19:15:08.093Z,15.70
2019-05-25T19:18:12.264Z,15.60
2019-05-25T19:21:15.431Z,15.40
2019-05-25T19:24:16.959Z,15.30
2019-05-25T19:27:21.575Z,15.10
2019-05-25T19:30:23.346Z,15.10
2019-05-25T19:33:25.388Z,15.00
2019-05-25T19:36:27.757Z,15.00
2019-05-25T19:39:30.645Z,14.90
2019-05-25T19:42:32.605Z,14.80
2019-05-25T19:45:34.750Z,14.80
2019-05-25T19:48:35.980Z,14.70
2019-05-25T19:51:37.811Z,14.60
2019-05-25T19:54:39.563Z,14.60
2019-05-25T19:57:44.486Z,14.50
2019-05-25T20:00:44.351Z,14.40
2019-05-25T20:03:45.706Z,14.30
2019-05-25T20:06:47.649Z,14.30
2019-05-25T20:09:49.209Z,14.20
2019-05-25T20:12:51.931Z,14.10
2019-05-25T20:15:53.206Z,14.00
2019-05-25T20:18:54.850Z,13.90
2019-05-25T20:21:59.450Z,13.80
2019-05-25T20:25:01.798Z,13.70
2019-05-25T20:28:03.636Z,13.60
2019-05-25T20:31:05.345Z,13.50
2019-05-25T20:34:06.862Z,13.40
2019-05-25T20:37:08.708Z,13.40
2019-05-25T20:40:10.542Z,13.50
2019-05-25T20:43:12.472Z,13.50
2019-05-25T20:46:14.198Z,13.50
2019-05-25T20:49:15.421Z,13.40
2019-05-25T20:52:17.313Z,13.40
2019-05-25T20:55:18.579Z,13.30
2019-05-25T20:58:20.176Z,13.20
2019-05-25T21:01:21.441Z,13.20
2019-05-25T21:04:24.098Z,13.30
2019-05-25T21:07:26.556Z,13.40
2019-05-25T21:10:28.458Z,13.60
2019-05-25T21:13:29.778Z,13.70
2019-05-25T21:16:31.936Z,13.80
2019-05-25T21:19:33.381Z,13.90
2019-05-25T21:22:35.954Z,13.70
2019-05-25T21:25:37.209Z,13.70
2019-05-25T21:28:38.643Z,13.60
2019-05-25T21:31:39.992Z,13.40
2019-05-25T21:34:41.556Z,13.30
2019-05-25T21:37:43.034Z,13.10
2019-05-25T21:40:44.330Z,13.00
2019-05-25T21:43:46.031Z,12.90
2019-05-25T21:46:47.273Z,12.70
2019-05-25T21:49:48.784Z,12.70
2019-05-25T21:52:50.057Z,12.50
2019-05-25T21:55:51.315Z,12.40
2019-05-25T21:58:52.554Z,12.40
2019-05-25T22:01:54.015Z,12.20
2019-05-25T22:04:55.344Z,12.20
2019-05-25T22:07:56.773Z,12.10
2019-05-25T22:10:58.023Z,12.10
2019-05-25T22:13:59.426Z,12.00
2019-05-25T22:17:00.696Z,11.90
2019-05-25T22:20:04.373Z,12.00
2019-05-25T22:23:06.440Z,12.00
2019-05-25T22:26:07.890Z,12.00
2019-05-25T22:29:09.126Z,12.10
2019-05-25T22:32:10.502Z,12.00
2019-05-25T22:35:11.774Z,12.10
2019-05-25T22:38:14.522Z,12.10
2019-05-25T22:41:19.647Z,12.10
2019-05-25T22:44:19.553Z,12.10
2019-05-25T22:47:20.803Z,12.10
2019-05-25T22:50:22.161Z,12.00
2019-05-25T22:53:23.429Z,12.00
2019-05-25T22:56:25.316Z,12.00
2019-05-25T22:59:26.562Z,11.80
2019-05-25T23:02:27.838Z,11.70
2019-05-25T23:05:29.172Z,11.60
2019-05-25T23:08:30.455Z,11.50
2019-05-25T23:11:32.146Z,11.40
2019-05-25T23:14:33.770Z,11.30
2019-05-25T23:17:35.062Z,11.20
2019-05-25T23:20:36.845Z,11.00
2019-05-25T23:23:39.093Z,11.10
2019-05-25T23:26:40.772Z,11.10
2019-05-25T23:29:42.033Z,11.00
2019-05-25T23:32:43.477Z,11.00
2019-05-25T23:35:44.717Z,10.90
2019-05-25T23:38:46.076Z,10.90
2019-05-25T23:41:47.333Z,10.80
2019-05-25T23:44:48.596Z,10.80
2019-05-25T23:47:50.240Z,10.80
2019-05-25T23:50:51.496Z,10.80
2019-05-25T23:53:53.189Z,10.70
2019-05-25T23:56:54.825Z,10.70
2019-05-25T23:59:56.277Z,10.70
